Briefing drone pour Pougues-les-eaux

Rechercher une autre localisation

Conditions de vol :


Nous sommes le : Vendredi 09 décembre 2022
Il est 23:05 UTC (00:05 LT)

Lever de soleil : 06:55 UTC (07:55 LT)
Coucher de soleil : 16:24 UTC (17:24 LT)

Météo

L'essentiel des conditions de vol

VIGILANCE MÉTÉO FRANCE - Nièvre (58)
Pas de vigilances particulieres
CARTE TEMSI
CARTES DES FRONTS
METAR de LFQG
LFQG 081800Z AUTO 00000KT CAVOK M02/M03 Q1006

Date d'émission: 08/12/2022
Heure d'émission: 18:00 UTC
Vent: Calme
Visibilité horizontale: > 10 km
Plafond : Plafond et visibilité OK (CAVOK)
Température: -2 °C
Point de rosée: -3 °C
Humidité: 93%
Pression (QNH): 1006 hPa
Prévision 24h pour Nevers (7 km)
Vent : 14° pour 2 KT (7 km/h)
Temperature Maxi: -1 °C
Temperature Min: -1 °C
Humidité : 86%
Condition : Nuageux



Warning: count(): Parameter must be an array or an object that implements Countable in /homepages/6/d509196549/htdocs/droneoxygene/briefing.php on line 743
WEBCAM POUR POUGUES-LES-EAUX

Réglementation

Voler en sécurité

CARTES AERONAUTIQUE 1/500.000
CARTE AZBA (Reseau basse altitude)
CARTES VAC (LFQG)
SUP AIP




Chargement des AIP...
NOTAM (POUGUES-LES-EAUX + Terrain à proximité / FIR )




Chargement des NOTAMS...
CONTACT PREFECTURE 58


Avertissement : Les données mises à disposition sont indicatives. Oxygène Drone ne pourra être tenu responsable de dégâts causés aux biens et aux personnes.